福島空港の過去48時間の天気

福島空港 (Fukushima)

現在時刻: 1/21 13:11 JST (1/21 04:11 UTC) 以下の時間は現地時間です。

過去48時間のMETAR気象情報
時間 風向 風速(m/s) 視程 気温(℃) 湿度(%) 気圧(hPa) 天気現象
21 12:00 北西 8 10km以上 2 75 1019 弱いしゅう雪
21 11:00 北西 6 10km以上 1 80 1019
21 10:00 北西 7 10km以上 1 69 1018
21 09:00 北北西 6 10km以上 1 100 1017 弱いしゅう雪
21 08:00 北西 5 10km以上 0 100 1017 弱いしゅう雪
21 07:00 北西 5 10km以上 0 100 1016
21 06:40 北北西 3 10km以上 0 100 1015
20 20:00 北東 3 10km以上 1 100 1011
20 19:00 3 10km以上 2 100 1011
20 18:00 5 10km以上 3 100 1011
20 17:00 北北東 3 10km以上 3 100 1011
20 16:00 北北西 7 10km以上 4 81 1011
20 15:00 北北西 7 10km以上 5 70 1011
20 14:00 6 10km以上 6 65 1011 弱いしゅう雨
20 13:00 6 10km以上 6 65 1011
20 12:00 北北西 5 10km以上 5 75 1011
20 11:00 7 10km以上 4 93 1012 弱いしゅう雨
20 10:00 4 10km以上 4 100 1012
20 09:00 4 10km以上 2 100 1012 弱いしゅう雨
20 08:00 南東 2 10km以上 2 100 1011
20 07:00 不定 1 10km以上 2 100 1011 周辺でしゅう雨
20 06:40 南東 2 10km以上 0 100 1011 周辺でしゅう雨
RJSF 210300Z 31015KT 280V340 9999 -SHSN FEW015 SCT020 BKN030 02/M02 Q1019
RJSF 210200Z 32011KT 280V350 9999 FEW015 SCT020 BKN025 01/M02 Q1019
RJSF 210100Z 31013G25KT 270V350 9999 FEW015 SCT025 BKN030 01/M04 Q1018
RJSF 210000Z 33011KT 290V350 9999 -SHSN FEW012 SCT015 BKN020 01/01 Q1017
RJSF 202300Z 32009KT 9999 -SHSN FEW012 BKN015 BKN020 00/00 Q1017
RJSF 202200Z 32010KT 9999 FEW015 SCT020 BKN025 00/00 Q1016
RJSF 202140Z 33005KT 270V360 9999 FEW015 SCT025 BKN050 00/00 Q1015 RMK 1CU015 3CU025 5CU050 A2999
RJSF 201100Z 04005KT 9999 FEW030 SCT090 01/01 Q1011
RJSF 201000Z 01006KT 9999 FEW040 SCT080 02/02 Q1011
RJSF 200900Z 35009KT CAVOK 03/03 Q1011
RJSF 200800Z 03005KT 360V070 9999 FEW015 SCT070 03/03 Q1011
RJSF 200700Z 34014KT 9999 FEW015 SCT050 04/01 Q1011
RJSF 200600Z 34013KT 9999 FEW015 SCT070 05/M00 Q1011
RJSF 200500Z 35012KT 9999 -SHRA FEW015 SCT050 06/M00 Q1011
RJSF 200400Z 35012KT 9999 FEW020 BKN050 06/M00 Q1011
RJSF 200300Z 34010KT 9999 FEW020 BKN050 05/01 Q1011
RJSF 200200Z 35013KT 9999 -SHRA FEW020 SCT045 BKN050 04/03 Q1012
RJSF 200100Z 36008KT 9999 FEW015 SCT050 BKN070 04/04 Q1012
RJSF 200000Z 01008KT 9999 -SHRA FEW005 SCT050 BKN070 02/02 Q1012
RJSF 192300Z 14003KT 110V170 9999 FEW005 SCT045 BKN050 02/02 Q1011
RJSF 192200Z VRB02KT 9999 VCSH FEW020 BKN050 BKN070 02/02 Q1011
RJSF 192140Z 13003KT 9999 VCSH FEW020 BKN050 BKN070 M00/M00 Q1011 RMK 1CU020 5CU050 7AC070 A2986